createdAt,value
2023-05-09T00:00:02.452Z,955.09
2023-05-09T00:02:28.933Z,955.09
2023-05-09T00:04:55.310Z,955.13
2023-05-09T00:07:21.686Z,955.09
2023-05-09T00:09:48.100Z,955.10
2023-05-09T00:12:14.491Z,955.01
2023-05-09T00:14:40.900Z,955.04
2023-05-09T00:17:07.344Z,955.01
2023-05-09T00:19:33.783Z,955.02
2023-05-09T00:22:00.218Z,955.13
2023-05-09T00:24:26.667Z,954.99
2023-05-09T00:26:53.124Z,954.92
2023-05-09T00:29:19.651Z,954.92
2023-05-09T00:31:46.333Z,954.87
2023-05-09T00:34:12.627Z,954.91
2023-05-09T00:36:39.049Z,954.84
2023-05-09T00:39:05.549Z,954.91
2023-05-09T00:41:31.978Z,954.92
2023-05-09T00:43:58.520Z,954.94
2023-05-09T00:46:24.915Z,954.91
2023-05-09T00:48:51.283Z,954.93
2023-05-09T00:51:17.768Z,954.87
2023-05-09T00:53:44.217Z,954.90
2023-05-09T00:56:10.725Z,954.88
2023-05-09T00:58:37.120Z,954.91
2023-05-09T01:01:03.592Z,954.87
2023-05-09T01:03:30.113Z,954.85
2023-05-09T01:05:56.491Z,954.90
2023-05-09T01:08:22.952Z,954.94
2023-05-09T01:10:49.428Z,954.87
2023-05-09T01:13:15.895Z,954.83
2023-05-09T01:15:42.465Z,954.83
2023-05-09T01:18:08.823Z,954.81
2023-05-09T01:20:35.339Z,954.84
2023-05-09T01:23:01.821Z,954.80
2023-05-09T01:25:28.179Z,954.83
2023-05-09T01:27:54.672Z,954.85
2023-05-09T01:30:21.161Z,954.82
2023-05-09T01:32:47.598Z,954.86
2023-05-09T01:35:14.239Z,954.90
2023-05-09T01:37:40.441Z,954.93
2023-05-09T01:40:06.901Z,954.92
2023-05-09T01:42:33.339Z,954.89
2023-05-09T01:44:59.756Z,954.95
2023-05-09T01:47:26.248Z,954.91
2023-05-09T01:49:52.658Z,954.89
2023-05-09T01:52:19.113Z,954.93
2023-05-09T01:54:45.541Z,954.99
2023-05-09T01:57:12.030Z,954.99
2023-05-09T01:59:38.446Z,954.99
2023-05-09T02:02:04.932Z,954.99
2023-05-09T02:04:31.396Z,954.98
2023-05-09T02:06:57.859Z,954.99
2023-05-09T02:09:24.198Z,954.97
2023-05-09T02:11:50.735Z,954.94
2023-05-09T02:14:17.175Z,954.96
2023-05-09T02:16:43.677Z,954.96
2023-05-09T02:19:10.096Z,954.94
2023-05-09T02:21:36.483Z,954.93
2023-05-09T02:24:02.875Z,954.84
2023-05-09T02:26:29.364Z,954.88
2023-05-09T02:28:55.836Z,954.92
2023-05-09T02:31:22.297Z,954.91
2023-05-09T02:33:48.952Z,954.96
2023-05-09T02:36:15.476Z,954.97
2023-05-09T02:38:41.878Z,954.97
2023-05-09T02:41:08.329Z,955.05
2023-05-09T02:43:34.719Z,954.99
2023-05-09T02:46:01.164Z,954.98
2023-05-09T02:48:27.574Z,954.99
2023-05-09T02:50:54.114Z,954.98
2023-05-09T02:53:20.529Z,955.03
2023-05-09T02:55:46.960Z,954.97
2023-05-09T02:58:14.927Z,954.98
2023-05-09T03:00:39.831Z,954.98
2023-05-09T03:03:06.383Z,955.02
2023-05-09T03:05:32.660Z,955.08
2023-05-09T03:07:59.038Z,955.07
2023-05-09T03:10:25.468Z,955.08
2023-05-09T03:12:51.953Z,955.15
2023-05-09T03:15:18.436Z,955.21
2023-05-09T03:17:44.855Z,955.24
2023-05-09T03:20:11.328Z,955.29
2023-05-09T03:22:37.712Z,955.35
2023-05-09T03:25:04.135Z,955.37
2023-05-09T03:27:30.573Z,955.44
2023-05-09T03:29:56.981Z,955.49
2023-05-09T03:32:23.476Z,955.50
2023-05-09T03:34:49.862Z,955.47
2023-05-09T03:37:16.218Z,955.54
2023-05-09T03:39:42.657Z,955.52
2023-05-09T03:42:09.127Z,955.57
2023-05-09T03:44:35.573Z,955.55
2023-05-09T03:47:02.050Z,955.53
2023-05-09T03:49:28.433Z,955.56
2023-05-09T03:51:54.821Z,955.53
2023-05-09T03:54:21.259Z,955.46
2023-05-09T03:56:47.722Z,955.50
2023-05-09T03:59:14.159Z,955.43
2023-05-09T04:01:40.619Z,955.50
2023-05-09T04:04:07.197Z,955.50
2023-05-09T04:06:33.477Z,955.50
2023-05-09T04:08:59.889Z,955.57
2023-05-09T04:11:26.330Z,955.57
2023-05-09T04:13:52.968Z,955.55
2023-05-09T04:16:19.382Z,955.58
2023-05-09T04:18:45.805Z,955.63
2023-05-09T04:21:12.191Z,955.66
2023-05-09T04:23:38.661Z,955.65
2023-05-09T04:26:05.076Z,955.71
2023-05-09T04:28:31.517Z,955.66
2023-05-09T04:30:58.021Z,955.65
2023-05-09T04:33:24.350Z,955.65
2023-05-09T04:35:50.752Z,955.66
2023-05-09T04:38:17.240Z,955.67
2023-05-09T04:40:43.655Z,955.67
2023-05-09T04:43:09.995Z,955.67
2023-05-09T04:45:36.388Z,955.63
2023-05-09T04:48:02.889Z,955.66
2023-05-09T04:50:29.219Z,955.69
2023-05-09T04:52:55.618Z,955.70
2023-05-09T04:55:21.989Z,955.73
2023-05-09T04:57:48.435Z,955.72
2023-05-09T05:00:14.897Z,955.70
2023-05-09T05:02:41.290Z,955.71
2023-05-09T05:05:17.631Z,955.71
2023-05-09T05:07:34.165Z,955.76
2023-05-09T05:10:00.555Z,955.66
2023-05-09T05:12:26.894Z,955.69
2023-05-09T05:14:53.290Z,955.65
2023-05-09T05:17:19.710Z,955.62
2023-05-09T05:19:46.123Z,955.71
2023-05-09T05:22:12.495Z,955.66
2023-05-09T05:24:38.865Z,955.59
2023-05-09T05:27:05.333Z,955.68
2023-05-09T05:29:31.686Z,955.67
2023-05-09T05:31:58.193Z,955.71
2023-05-09T05:34:24.549Z,955.72
2023-05-09T05:36:50.982Z,955.74
2023-05-09T05:39:17.339Z,955.84
2023-05-09T05:41:43.719Z,955.75
2023-05-09T05:44:10.139Z,955.78
2023-05-09T05:46:36.554Z,955.78
2023-05-09T05:49:02.920Z,955.78
2023-05-09T05:51:29.372Z,955.83
2023-05-09T05:53:55.951Z,955.75
2023-05-09T05:56:22.374Z,955.85
2023-05-09T05:58:48.788Z,955.81
2023-05-09T06:01:15.196Z,955.87
2023-05-09T06:03:42.650Z,955.87
2023-05-09T06:06:08.983Z,955.79
2023-05-09T06:08:35.395Z,955.83
2023-05-09T06:11:01.819Z,955.86
2023-05-09T06:13:28.307Z,955.79
2023-05-09T06:15:55.040Z,955.80
2023-05-09T06:18:20.966Z,955.84
2023-05-09T06:20:47.409Z,955.82
2023-05-09T06:23:13.784Z,955.82
2023-05-09T06:25:40.196Z,955.77
2023-05-09T06:28:06.637Z,955.83
2023-05-09T06:30:33.030Z,955.84
2023-05-09T06:32:59.419Z,955.83
2023-05-09T06:35:25.806Z,955.89
2023-05-09T06:37:52.172Z,955.81
2023-05-09T06:40:18.572Z,955.88
2023-05-09T06:42:44.972Z,955.83
2023-05-09T06:45:11.593Z,955.80
2023-05-09T06:47:37.925Z,955.72
2023-05-09T06:50:04.294Z,955.74
2023-05-09T06:52:30.690Z,955.74
2023-05-09T06:54:57.090Z,955.71
2023-05-09T06:57:23.481Z,955.74
2023-05-09T06:59:49.986Z,955.81
2023-05-09T07:02:16.371Z,955.75
2023-05-09T07:04:42.830Z,955.78
2023-05-09T07:07:09.156Z,955.85
2023-05-09T07:09:35.583Z,955.75
2023-05-09T07:12:01.946Z,955.72
2023-05-09T07:14:28.411Z,955.83
2023-05-09T07:17:02.178Z,955.78
2023-05-09T07:19:21.148Z,955.69
2023-05-09T07:21:47.551Z,955.67
2023-05-09T07:24:13.938Z,955.78
2023-05-09T07:26:40.327Z,955.80
2023-05-09T07:29:06.707Z,955.82
2023-05-09T07:31:35.143Z,955.76
2023-05-09T07:33:59.538Z,955.76
2023-05-09T07:36:25.986Z,955.72
2023-05-09T07:38:52.384Z,955.81
2023-05-09T07:41:18.767Z,955.79
2023-05-09T07:43:45.174Z,955.84
2023-05-09T07:46:11.675Z,955.81
2023-05-09T07:48:38.213Z,955.80
2023-05-09T07:51:04.610Z,955.90
2023-05-09T07:53:31.297Z,955.82
2023-05-09T07:55:57.673Z,955.91
2023-05-09T07:58:25.172Z,955.90
2023-05-09T08:00:51.565Z,955.87
2023-05-09T08:03:18.138Z,955.84
2023-05-09T08:05:44.380Z,955.74
2023-05-09T08:08:10.853Z,955.82
2023-05-09T08:10:37.250Z,955.79
2023-05-09T08:13:03.688Z,955.79
2023-05-09T08:15:30.044Z,955.90
2023-05-09T08:17:56.633Z,955.91
2023-05-09T08:20:23.114Z,955.92
2023-05-09T08:22:49.394Z,955.86
2023-05-09T08:25:16.048Z,955.87
2023-05-09T08:27:42.322Z,955.81
2023-05-09T08:30:08.737Z,955.86
2023-05-09T08:32:35.261Z,955.82
2023-05-09T08:35:01.762Z,955.81
2023-05-09T08:37:28.180Z,955.86
2023-05-09T08:39:54.650Z,955.79
2023-05-09T08:42:21.039Z,955.79
2023-05-09T08:44:47.454Z,955.77
2023-05-09T08:47:13.864Z,955.84
2023-05-09T08:49:40.314Z,955.84
2023-05-09T08:52:06.689Z,955.77
2023-05-09T08:54:33.101Z,955.73
2023-05-09T08:56:59.555Z,955.75
2023-05-09T08:59:28.453Z,955.74
2023-05-09T09:01:54.925Z,955.68
2023-05-09T09:04:21.259Z,955.68
2023-05-09T09:06:47.625Z,955.71
2023-05-09T09:09:14.064Z,955.70
2023-05-09T09:11:40.560Z,955.75
2023-05-09T09:14:06.856Z,955.66
2023-05-09T09:16:33.443Z,955.68
2023-05-09T09:18:59.839Z,955.66
2023-05-09T09:21:26.274Z,955.61
2023-05-09T09:23:52.696Z,955.70
2023-05-09T09:26:19.089Z,955.68
2023-05-09T09:28:45.523Z,955.74
2023-05-09T09:31:11.879Z,955.71
2023-05-09T09:33:38.923Z,955.81
2023-05-09T09:36:05.505Z,955.69
2023-05-09T09:38:31.943Z,955.82
2023-05-09T09:40:58.320Z,955.79
2023-05-09T09:43:24.735Z,955.70
2023-05-09T09:45:51.158Z,955.66
2023-05-09T09:48:17.526Z,955.74
2023-05-09T09:50:43.920Z,955.83
2023-05-09T09:53:10.353Z,955.76
2023-05-09T09:55:36.739Z,955.68
2023-05-09T09:58:03.142Z,955.67
2023-05-09T10:00:29.552Z,955.88
2023-05-09T10:02:56.096Z,955.69
2023-05-09T10:05:22.448Z,955.65
2023-05-09T10:07:48.869Z,955.66
2023-05-09T10:10:15.597Z,955.68
2023-05-09T10:12:41.858Z,955.59
2023-05-09T10:15:08.222Z,955.57
2023-05-09T10:17:34.792Z,955.57
2023-05-09T10:20:01.085Z,955.51
2023-05-09T10:22:27.524Z,955.63
2023-05-09T10:24:55.013Z,955.59
2023-05-09T10:27:20.287Z,955.53
2023-05-09T10:29:46.697Z,955.59
2023-05-09T10:32:13.184Z,955.46
2023-05-09T10:34:39.513Z,955.49
2023-05-09T10:37:05.932Z,955.50
2023-05-09T10:39:32.377Z,955.51
2023-05-09T10:41:58.806Z,955.54
2023-05-09T10:44:25.332Z,955.61
2023-05-09T10:46:51.805Z,955.58
2023-05-09T10:49:18.196Z,955.60
2023-05-09T10:51:44.640Z,955.50
2023-05-09T10:54:11.011Z,955.51
2023-05-09T10:56:37.455Z,955.55
2023-05-09T10:59:04.085Z,955.59
2023-05-09T11:01:30.561Z,955.62
2023-05-09T11:03:57.068Z,955.67
2023-05-09T11:06:23.316Z,955.64
2023-05-09T11:08:49.764Z,955.60
2023-05-09T11:11:16.157Z,955.60
2023-05-09T11:13:42.526Z,955.67
2023-05-09T11:16:08.985Z,955.66
2023-05-09T11:18:35.359Z,955.70
2023-05-09T11:21:01.757Z,955.58
2023-05-09T11:23:28.135Z,955.67
2023-05-09T11:25:54.565Z,955.65
2023-05-09T11:28:20.990Z,955.67
2023-05-09T11:30:47.386Z,955.62
2023-05-09T11:33:13.826Z,955.70
2023-05-09T11:35:40.208Z,955.64
2023-05-09T11:38:06.636Z,955.66
2023-05-09T11:40:33.235Z,955.71
2023-05-09T11:42:59.625Z,955.61
2023-05-09T11:45:26.003Z,955.66
2023-05-09T11:47:52.439Z,955.61
2023-05-09T11:50:18.924Z,955.48
2023-05-09T11:52:45.348Z,955.62
2023-05-09T11:55:12.840Z,955.60
2023-05-09T11:57:38.140Z,955.57
2023-05-09T12:00:04.532Z,955.69
2023-05-09T12:02:30.990Z,955.54
2023-05-09T12:04:57.330Z,955.64
2023-05-09T12:07:23.727Z,955.80
2023-05-09T12:09:50.142Z,955.64
2023-05-09T12:12:16.520Z,955.60
2023-05-09T12:14:42.954Z,955.59
2023-05-09T12:17:09.363Z,955.66
2023-05-09T12:19:35.785Z,955.59
2023-05-09T12:22:04.506Z,955.70
2023-05-09T12:24:30.943Z,955.57
2023-05-09T12:26:57.360Z,955.64
2023-05-09T12:29:23.779Z,955.55
2023-05-09T12:31:50.287Z,955.61
2023-05-09T12:34:16.587Z,955.62
2023-05-09T12:36:42.968Z,955.59
2023-05-09T12:39:09.394Z,955.68
2023-05-09T12:41:41.670Z,955.54
2023-05-09T12:44:03.351Z,955.54
2023-05-09T12:46:29.769Z,955.66
2023-05-09T12:48:56.168Z,955.66
2023-05-09T12:51:22.533Z,955.58
2023-05-09T12:53:48.996Z,955.62
2023-05-09T12:56:15.400Z,955.53
2023-05-09T12:58:41.843Z,955.59
2023-05-09T13:01:09.311Z,955.43
2023-05-09T13:03:35.819Z,955.42
2023-05-09T13:06:02.081Z,955.52
2023-05-09T13:08:28.492Z,955.47
2023-05-09T13:11:04.028Z,955.38
2023-05-09T13:13:21.439Z,955.37
2023-05-09T13:15:47.670Z,955.39
2023-05-09T13:18:14.116Z,955.33
2023-05-09T13:20:40.470Z,955.35
2023-05-09T13:23:06.950Z,955.35
2023-05-09T13:25:33.307Z,955.30
2023-05-09T13:27:59.825Z,955.47
2023-05-09T13:30:26.317Z,955.28
2023-05-09T13:32:52.708Z,955.39
2023-05-09T13:35:19.066Z,955.47
2023-05-09T13:37:45.473Z,955.42
2023-05-09T13:40:12.039Z,955.39
2023-05-09T13:42:38.303Z,955.34
2023-05-09T13:45:04.678Z,955.46
2023-05-09T13:47:31.126Z,955.41
2023-05-09T13:49:57.517Z,955.31
2023-05-09T13:52:23.927Z,955.32
2023-05-09T13:54:50.561Z,955.34
2023-05-09T13:57:16.947Z,955.30
2023-05-09T13:59:43.411Z,955.32
2023-05-09T14:02:10.007Z,955.45
2023-05-09T14:04:36.464Z,955.27
2023-05-09T14:07:02.905Z,955.35
2023-05-09T14:09:29.403Z,955.38
2023-05-09T14:11:55.789Z,955.32
2023-05-09T14:14:22.171Z,955.33
2023-05-09T14:16:48.622Z,955.35
2023-05-09T14:19:15.039Z,955.27
2023-05-09T14:21:41.432Z,955.34
2023-05-09T14:24:07.839Z,955.37
2023-05-09T14:26:34.311Z,955.34
2023-05-09T14:29:00.684Z,955.33
2023-05-09T14:31:27.166Z,955.25
2023-05-09T14:33:53.535Z,955.26
2023-05-09T14:36:20.033Z,955.28
2023-05-09T14:38:46.416Z,955.25
2023-05-09T14:41:12.818Z,955.24
2023-05-09T14:43:40.295Z,955.23
2023-05-09T14:46:06.761Z,955.36
2023-05-09T14:48:33.122Z,955.29
2023-05-09T14:50:59.542Z,955.26
2023-05-09T14:53:26.138Z,955.31
2023-05-09T14:55:52.656Z,955.29
2023-05-09T14:58:19.042Z,955.18
2023-05-09T15:00:45.531Z,955.24
2023-05-09T15:03:11.978Z,955.25
2023-05-09T15:05:38.454Z,955.33
2023-05-09T15:08:04.947Z,955.30
2023-05-09T15:10:31.428Z,955.28
2023-05-09T15:12:57.866Z,955.20
2023-05-09T15:15:24.271Z,955.29
2023-05-09T15:17:50.778Z,955.20
2023-05-09T15:20:18.161Z,955.26
2023-05-09T15:22:45.693Z,955.28
2023-05-09T15:25:12.129Z,955.24
2023-05-09T15:27:38.489Z,955.25
2023-05-09T15:30:05.002Z,955.28
2023-05-09T15:32:31.434Z,955.26
2023-05-09T15:34:58.785Z,955.24
2023-05-09T15:37:25.179Z,955.26
2023-05-09T15:39:51.604Z,955.22
2023-05-09T15:42:18.110Z,955.30
2023-05-09T15:44:44.608Z,955.32
2023-05-09T15:47:10.997Z,955.39
2023-05-09T15:49:37.453Z,955.29
2023-05-09T15:52:03.848Z,955.29
2023-05-09T15:54:30.303Z,955.29
2023-05-09T15:56:56.716Z,955.31
2023-05-09T15:59:23.091Z,955.34
2023-05-09T16:01:49.553Z,955.30
2023-05-09T16:04:16.017Z,955.46
2023-05-09T16:06:42.450Z,955.31
2023-05-09T16:09:08.854Z,955.35
2023-05-09T16:11:35.326Z,955.35
2023-05-09T16:14:01.695Z,955.33
2023-05-09T16:16:28.102Z,955.32
2023-05-09T16:18:54.530Z,955.39
2023-05-09T16:21:20.996Z,955.35
2023-05-09T16:23:47.369Z,955.29
2023-05-09T16:26:13.941Z,955.41
2023-05-09T16:28:40.356Z,955.43
2023-05-09T16:31:06.856Z,955.42
2023-05-09T16:33:33.208Z,955.39
2023-05-09T16:35:59.637Z,955.37
2023-05-09T16:38:26.002Z,955.40
2023-05-09T16:40:52.442Z,955.51
2023-05-09T16:43:18.853Z,955.51
2023-05-09T16:45:47.889Z,955.62
2023-05-09T16:48:11.812Z,955.56
2023-05-09T16:50:38.202Z,955.50
2023-05-09T16:53:04.568Z,955.53
2023-05-09T16:55:30.990Z,955.68
2023-05-09T16:57:57.424Z,955.51
2023-05-09T17:00:23.815Z,955.53
2023-05-09T17:02:50.276Z,955.54
2023-05-09T17:05:16.673Z,955.56
2023-05-09T17:07:43.176Z,955.55
2023-05-09T17:10:09.811Z,955.62
2023-05-09T17:12:36.200Z,955.54
2023-05-09T17:15:02.632Z,955.63
2023-05-09T17:17:29.078Z,955.49
2023-05-09T17:19:55.543Z,955.50
2023-05-09T17:22:21.953Z,955.61
2023-05-09T17:24:48.424Z,955.60
2023-05-09T17:27:17.196Z,955.82
2023-05-09T17:29:43.611Z,955.60
2023-05-09T17:32:10.121Z,955.68
2023-05-09T17:34:36.436Z,955.56
2023-05-09T17:37:02.926Z,955.58
2023-05-09T17:39:29.316Z,955.63
2023-05-09T17:41:55.712Z,955.68
2023-05-09T17:44:22.476Z,955.70
2023-05-09T17:46:49.100Z,955.72
2023-05-09T17:49:15.500Z,955.73
2023-05-09T17:51:41.899Z,955.72
2023-05-09T17:54:08.545Z,955.82
2023-05-09T17:56:35.101Z,955.89
2023-05-09T17:59:01.618Z,955.79
2023-05-09T18:01:28.054Z,955.76
2023-05-09T18:03:54.717Z,955.85
2023-05-09T18:06:21.510Z,955.87
2023-05-09T18:08:50.003Z,955.85
2023-05-09T18:11:14.334Z,955.85
2023-05-09T18:13:40.962Z,956.02
2023-05-09T18:16:07.767Z,956.00
2023-05-09T18:18:34.119Z,956.02
2023-05-09T18:21:00.617Z,956.01
2023-05-09T18:23:27.263Z,955.92
2023-05-09T18:25:53.686Z,955.98
2023-05-09T18:28:20.115Z,956.00
2023-05-09T18:30:46.536Z,956.00
2023-05-09T18:33:13.008Z,956.03
2023-05-09T18:35:39.517Z,955.98
2023-05-09T18:38:06.331Z,955.98
2023-05-09T18:40:32.803Z,956.05
2023-05-09T18:42:59.143Z,956.00
2023-05-09T18:45:25.626Z,955.95
2023-05-09T18:47:52.046Z,955.94
2023-05-09T18:50:18.717Z,955.87
2023-05-09T18:52:44.944Z,955.88
2023-05-09T18:55:11.890Z,955.87
2023-05-09T18:57:38.305Z,955.98
2023-05-09T19:00:04.747Z,956.00
2023-05-09T19:02:31.323Z,956.07
2023-05-09T19:04:57.930Z,956.09
2023-05-09T19:07:24.407Z,956.04
2023-05-09T19:09:50.874Z,956.05
2023-05-09T19:12:17.270Z,956.03
2023-05-09T19:14:43.694Z,956.01
2023-05-09T19:17:10.156Z,956.07
2023-05-09T19:19:36.497Z,956.11
2023-05-09T19:22:02.993Z,956.06
2023-05-09T19:24:29.430Z,956.11
2023-05-09T19:26:55.864Z,956.13
2023-05-09T19:29:22.270Z,956.14
2023-05-09T19:31:49.028Z,956.10
2023-05-09T19:34:15.479Z,956.11
2023-05-09T19:36:44.227Z,956.12
2023-05-09T19:39:10.762Z,956.02
2023-05-09T19:41:37.209Z,955.99
2023-05-09T19:44:03.594Z,956.03
2023-05-09T19:46:30.429Z,956.03
2023-05-09T19:48:56.732Z,956.01
2023-05-09T19:51:23.234Z,956.00
2023-05-09T19:53:51.649Z,956.01
2023-05-09T19:56:16.120Z,956.05
2023-05-09T19:58:42.457Z,955.97
2023-05-09T20:01:08.985Z,955.98
2023-05-09T20:03:35.430Z,955.98
2023-05-09T20:06:01.764Z,955.94
2023-05-09T20:08:28.158Z,955.93
2023-05-09T20:10:54.621Z,955.95
2023-05-09T20:13:21.182Z,955.97
2023-05-09T20:15:47.454Z,955.96
2023-05-09T20:18:13.918Z,956.02
2023-05-09T20:20:40.256Z,956.02
2023-05-09T20:23:06.673Z,956.04
2023-05-09T20:25:33.012Z,956.07
2023-05-09T20:27:59.369Z,955.94
2023-05-09T20:30:25.770Z,955.94
2023-05-09T20:32:52.339Z,955.92
2023-05-09T20:35:18.678Z,955.85
2023-05-09T20:37:45.059Z,955.87
2023-05-09T20:40:11.515Z,955.83
2023-05-09T20:42:37.905Z,955.77
2023-05-09T20:45:04.262Z,955.79
2023-05-09T20:47:30.646Z,955.83
2023-05-09T20:49:58.341Z,955.83
2023-05-09T20:52:23.384Z,955.75
2023-05-09T20:54:49.755Z,955.76
2023-05-09T20:57:16.157Z,955.71
2023-05-09T20:59:42.496Z,955.78
2023-05-09T21:02:08.915Z,955.77
2023-05-09T21:04:35.195Z,955.73
2023-05-09T21:07:01.535Z,955.72
2023-05-09T21:09:27.883Z,955.66
2023-05-09T21:11:54.222Z,955.74
2023-05-09T21:14:20.756Z,955.71
2023-05-09T21:16:47.153Z,955.78
2023-05-09T21:19:13.502Z,955.80
2023-05-09T21:21:39.829Z,955.67
2023-05-09T21:24:06.265Z,955.67
2023-05-09T21:26:32.571Z,955.73
2023-05-09T21:28:58.948Z,955.66
2023-05-09T21:31:25.377Z,955.69
2023-05-09T21:33:51.629Z,955.68
2023-05-09T21:36:18.056Z,955.72
2023-05-09T21:38:44.440Z,955.72
2023-05-09T21:41:10.828Z,955.66
2023-05-09T21:43:37.225Z,955.63
2023-05-09T21:46:03.602Z,955.63
2023-05-09T21:48:30.087Z,955.59
2023-05-09T21:50:58.830Z,955.58
2023-05-09T21:53:25.197Z,955.61
2023-05-09T21:55:51.613Z,955.57
2023-05-09T21:58:18.169Z,955.57
2023-05-09T22:00:44.506Z,955.53
2023-05-09T22:03:10.891Z,955.63
2023-05-09T22:05:37.259Z,955.52
2023-05-09T22:08:04.719Z,955.45
2023-05-09T22:10:31.032Z,955.52
2023-05-09T22:12:57.436Z,955.45
2023-05-09T22:15:23.875Z,955.55
2023-05-09T22:17:50.264Z,955.50
2023-05-09T22:20:16.750Z,955.44
2023-05-09T22:22:43.056Z,955.43
2023-05-09T22:25:09.372Z,955.49
2023-05-09T22:27:35.794Z,955.58
2023-05-09T22:30:02.160Z,955.51
2023-05-09T22:32:28.622Z,955.48
2023-05-09T22:34:54.929Z,955.41
2023-05-09T22:37:21.295Z,955.60
2023-05-09T22:39:47.743Z,955.56
2023-05-09T22:42:14.060Z,955.58
2023-05-09T22:44:40.500Z,955.44
2023-05-09T22:47:06.857Z,955.47
2023-05-09T22:49:33.333Z,955.45
2023-05-09T22:52:02.116Z,955.37
2023-05-09T22:54:26.216Z,955.43
2023-05-09T22:56:52.647Z,955.31
2023-05-09T22:59:19.067Z,955.28
2023-05-09T23:01:45.472Z,955.29
2023-05-09T23:04:11.960Z,955.32
2023-05-09T23:06:38.454Z,955.34
2023-05-09T23:09:04.879Z,955.28
2023-05-09T23:11:31.489Z,955.27
2023-05-09T23:13:57.990Z,955.23
2023-05-09T23:16:24.465Z,955.27
2023-05-09T23:18:50.964Z,955.29
2023-05-09T23:21:17.467Z,955.23
2023-05-09T23:23:43.916Z,955.21
2023-05-09T23:26:10.346Z,955.27
2023-05-09T23:28:36.911Z,955.32
2023-05-09T23:31:03.347Z,955.27
2023-05-09T23:33:29.690Z,955.26
2023-05-09T23:35:56.124Z,955.19
2023-05-09T23:38:22.591Z,955.20
2023-05-09T23:40:48.973Z,955.16
2023-05-09T23:43:15.351Z,955.14
2023-05-09T23:45:41.728Z,955.18
2023-05-09T23:48:08.192Z,955.21
2023-05-09T23:50:34.707Z,955.12
2023-05-09T23:53:03.479Z,955.14
2023-05-09T23:55:27.645Z,955.21
2023-05-09T23:57:53.954Z,955.10
